createdAt,value
2022-09-28T00:00:03.339Z,52.50
2022-09-28T00:02:30.123Z,52.40
2022-09-28T00:04:56.830Z,52.10
2022-09-28T00:07:23.567Z,51.60
2022-09-28T00:09:50.272Z,51.70
2022-09-28T00:12:16.917Z,51.30
2022-09-28T00:14:44.661Z,51.10
2022-09-28T00:17:12.423Z,51.10
2022-09-28T00:19:42.757Z,51.10
2022-09-28T00:22:09.499Z,51.10
2022-09-28T00:24:37.403Z,51.10
2022-09-28T00:27:04.252Z,51.20
2022-09-28T00:29:31.844Z,51.30
2022-09-28T00:32:02.993Z,51.40
2022-09-28T00:34:33.217Z,51.40
2022-09-28T00:37:00.285Z,51.50
2022-09-28T00:39:27.187Z,51.50
2022-09-28T00:41:54.120Z,51.50
2022-09-28T00:44:26.891Z,51.50
2022-09-28T00:46:58.947Z,51.50
2022-09-28T00:49:28.936Z,51.50
2022-09-28T00:51:55.627Z,51.40
2022-09-28T00:54:22.301Z,51.60
2022-09-28T00:56:50.682Z,51.70
2022-09-28T00:59:17.644Z,51.80
2022-09-28T01:01:44.393Z,51.80
2022-09-28T01:04:11.113Z,51.90
2022-09-28T01:06:37.797Z,51.90
2022-09-28T01:09:05.205Z,51.90
2022-09-28T01:11:32.033Z,51.90
2022-09-28T01:13:58.748Z,51.90
2022-09-28T01:16:28.951Z,52.00
2022-09-28T01:18:58.750Z,52.00
2022-09-28T01:21:25.541Z,52.10
2022-09-28T01:24:11.039Z,52.10
2022-09-28T01:26:37.684Z,52.00
2022-09-28T01:29:13.744Z,52.00
2022-09-28T01:31:41.893Z,52.10
2022-09-28T01:34:13.891Z,52.10
2022-09-28T01:36:42.851Z,52.80
2022-09-28T01:39:10.122Z,52.20
2022-09-28T01:41:36.919Z,52.20
2022-09-28T01:44:03.566Z,52.20
2022-09-28T01:46:44.905Z,52.20
2022-09-28T01:49:13.122Z,52.20
2022-09-28T01:52:06.270Z,52.20
2022-09-28T01:54:35.167Z,52.20
2022-09-28T01:57:06.244Z,52.20
2022-09-28T01:59:33.179Z,52.20
2022-09-28T02:02:01.802Z,52.20
2022-09-28T02:04:40.164Z,52.20
2022-09-28T02:07:09.881Z,52.30
2022-09-28T02:09:43.590Z,52.20
2022-09-28T02:12:11.657Z,52.30
2022-09-28T02:14:38.346Z,52.30
2022-09-28T02:17:05.046Z,52.30
2022-09-28T02:19:31.947Z,52.30
2022-09-28T02:22:14.019Z,52.20
2022-09-28T02:24:42.016Z,52.20
2022-09-28T02:27:19.689Z,52.80
2022-09-28T02:29:46.311Z,52.40
2022-09-28T02:32:12.947Z,52.20
2022-09-28T02:34:39.597Z,52.00
2022-09-28T02:37:06.252Z,51.80
2022-09-28T02:39:32.904Z,51.50
2022-09-28T02:42:05.772Z,51.30
2022-09-28T02:44:51.356Z,51.00
2022-09-28T02:47:22.521Z,50.80
2022-09-28T02:49:58.469Z,50.70
2022-09-28T02:52:25.142Z,50.80
2022-09-28T02:54:57.864Z,50.80
2022-09-28T02:57:30.092Z,51.00
2022-09-28T03:00:13.222Z,50.90
2022-09-28T03:02:49.161Z,51.10
2022-09-28T03:05:16.098Z,51.10
2022-09-28T03:07:46.119Z,51.20
2022-09-28T03:10:12.774Z,51.20
2022-09-28T03:12:39.478Z,51.40
2022-09-28T03:15:26.411Z,51.50
2022-09-28T03:17:53.067Z,51.40
2022-09-28T03:20:19.733Z,51.40
2022-09-28T03:23:00.244Z,51.40
2022-09-28T03:25:33.118Z,51.40
2022-09-28T03:27:59.811Z,51.40
2022-09-28T03:30:26.472Z,51.30
2022-09-28T03:33:03.143Z,51.30
2022-09-28T03:35:30.009Z,51.40
2022-09-28T03:37:56.815Z,51.70
2022-09-28T03:40:23.634Z,51.60
2022-09-28T03:42:50.326Z,51.70
2022-09-28T03:45:16.997Z,51.80
2022-09-28T03:47:46.962Z,51.70
2022-09-28T03:50:13.647Z,51.70
2022-09-28T03:52:40.324Z,51.80
2022-09-28T03:55:07.125Z,51.80
2022-09-28T03:57:33.776Z,51.90
2022-09-28T04:00:00.505Z,51.90
2022-09-28T04:02:27.390Z,51.90
2022-09-28T04:04:54.111Z,52.00
2022-09-28T04:07:20.765Z,52.00
2022-09-28T04:09:47.418Z,52.00
2022-09-28T04:12:14.056Z,52.10
2022-09-28T04:14:40.681Z,52.20
2022-09-28T04:17:07.409Z,52.20
2022-09-28T04:19:34.081Z,52.30
2022-09-28T04:22:01.729Z,52.20
2022-09-28T04:24:28.377Z,52.30
2022-09-28T04:27:15.003Z,52.30
2022-09-28T04:29:41.751Z,52.40
2022-09-28T04:32:08.416Z,52.40
2022-09-28T04:34:37.243Z,52.50
2022-09-28T04:37:05.418Z,52.50
2022-09-28T04:39:32.089Z,52.60
2022-09-28T04:41:58.791Z,52.60
2022-09-28T04:44:25.436Z,52.70
2022-09-28T04:46:52.090Z,52.70
2022-09-28T04:49:18.877Z,52.70
2022-09-28T04:51:45.665Z,52.70
2022-09-28T04:54:12.405Z,52.70
2022-09-28T04:56:39.262Z,52.70
2022-09-28T04:59:06.221Z,52.70
2022-09-28T05:01:32.973Z,52.80
2022-09-28T05:03:59.725Z,52.70
2022-09-28T05:06:28.625Z,52.70
2022-09-28T05:08:57.390Z,52.90
2022-09-28T05:11:24.239Z,52.50
2022-09-28T05:13:50.954Z,52.00
2022-09-28T05:16:17.797Z,51.40
2022-09-28T05:18:44.469Z,51.40
2022-09-28T05:21:12.751Z,51.50
2022-09-28T05:23:39.746Z,51.20
2022-09-28T05:26:06.530Z,50.90
2022-09-28T05:28:33.384Z,50.80
2022-09-28T05:31:03.550Z,50.90
2022-09-28T05:33:31.017Z,51.00
2022-09-28T05:36:01.022Z,51.10
2022-09-28T05:38:28.622Z,51.20
2022-09-28T05:40:55.554Z,51.30
2022-09-28T05:43:22.618Z,51.50
2022-09-28T05:45:54.336Z,51.40
2022-09-28T05:48:21.923Z,51.40
2022-09-28T05:50:52.523Z,51.40
2022-09-28T05:53:19.325Z,51.40
2022-09-28T05:55:46.042Z,51.40
2022-09-28T05:58:13.814Z,51.60
2022-09-28T06:00:40.861Z,51.70
2022-09-28T06:03:09.431Z,51.70
2022-09-28T06:05:36.481Z,51.70
2022-09-28T06:08:04.405Z,51.70
2022-09-28T06:10:31.272Z,51.70
2022-09-28T06:12:58.018Z,51.80
2022-09-28T06:15:25.885Z,51.90
2022-09-28T06:17:56.369Z,51.90
2022-09-28T06:20:23.015Z,52.00
2022-09-28T06:22:53.363Z,52.50
2022-09-28T06:25:21.579Z,52.00
2022-09-28T06:28:14.545Z,52.00
2022-09-28T06:30:41.506Z,52.00
2022-09-28T06:33:09.804Z,52.10
2022-09-28T06:35:36.513Z,52.10
2022-09-28T06:38:03.242Z,52.10
2022-09-28T06:40:30.387Z,52.20
2022-09-28T06:42:57.195Z,52.20
2022-09-28T06:45:25.388Z,52.20
2022-09-28T06:47:56.660Z,52.20
2022-09-28T06:50:24.188Z,52.20
2022-09-28T06:52:51.834Z,52.20
2022-09-28T06:55:18.660Z,52.20
2022-09-28T06:57:45.359Z,52.20
2022-09-28T07:00:15.251Z,52.30
2022-09-28T07:02:42.029Z,52.30
2022-09-28T07:05:09.559Z,52.30
2022-09-28T07:07:36.481Z,52.30
2022-09-28T07:10:03.217Z,52.30
2022-09-28T07:12:30.264Z,52.30
2022-09-28T07:14:57.685Z,52.40
2022-09-28T07:17:24.557Z,52.30
2022-09-28T07:19:52.750Z,52.40
2022-09-28T07:22:23.732Z,52.40
2022-09-28T07:24:57.816Z,52.40
2022-09-28T07:27:28.733Z,52.30
2022-09-28T07:29:55.612Z,52.30
2022-09-28T07:32:22.340Z,52.40
2022-09-28T07:34:49.507Z,52.30
2022-09-28T07:37:18.862Z,52.40
2022-09-28T07:40:04.134Z,52.30
2022-09-28T07:42:30.834Z,52.10
2022-09-28T07:44:57.693Z,51.90
2022-09-28T07:47:30.814Z,51.50
2022-09-28T07:50:00.796Z,51.30
2022-09-28T07:52:28.792Z,51.10
2022-09-28T07:54:55.652Z,51.60
2022-09-28T07:57:22.429Z,50.80
2022-09-28T07:59:49.832Z,50.80
2022-09-28T08:02:18.620Z,50.80
2022-09-28T08:04:45.559Z,51.00
2022-09-28T08:07:12.398Z,51.00
2022-09-28T08:09:39.024Z,51.20
2022-09-28T08:12:05.730Z,51.30
2022-09-28T08:14:35.461Z,51.40
2022-09-28T08:17:02.130Z,51.50
2022-09-28T08:19:51.782Z,51.50
2022-09-28T08:22:18.927Z,51.40
2022-09-28T08:24:45.912Z,51.40
2022-09-28T08:27:12.942Z,51.40
2022-09-28T08:29:39.816Z,51.30
2022-09-28T08:32:08.213Z,51.50
2022-09-28T08:34:38.378Z,51.40
2022-09-28T08:37:19.049Z,51.60
2022-09-28T08:39:46.159Z,51.50
2022-09-28T08:42:31.950Z,51.70
2022-09-28T08:44:59.235Z,51.60
2022-09-28T08:47:46.478Z,51.70
2022-09-28T08:50:14.318Z,51.70
2022-09-28T08:52:41.132Z,51.70
2022-09-28T08:55:16.494Z,51.70
2022-09-28T08:58:05.456Z,51.70
2022-09-28T09:00:39.918Z,51.80
2022-09-28T09:03:06.725Z,51.70
2022-09-28T09:05:56.759Z,51.80
2022-09-28T09:08:42.317Z,51.80
2022-09-28T09:11:10.865Z,51.90
2022-09-28T09:13:37.659Z,51.90
2022-09-28T09:16:24.328Z,51.90
2022-09-28T09:18:54.079Z,51.90
2022-09-28T09:21:36.087Z,51.90
2022-09-28T09:24:04.787Z,51.80
2022-09-28T09:26:34.933Z,51.90
2022-09-28T09:29:20.813Z,51.80
2022-09-28T09:32:20.556Z,51.90
2022-09-28T09:34:47.212Z,51.90
2022-09-28T09:37:20.582Z,51.90
2022-09-28T09:39:56.432Z,51.90
2022-09-28T09:42:37.309Z,51.90
2022-09-28T09:45:25.071Z,51.90
2022-09-28T09:48:08.609Z,51.90
2022-09-28T09:50:55.064Z,51.90
2022-09-28T09:53:21.793Z,51.90
2022-09-28T09:55:50.479Z,51.90
2022-09-28T09:58:23.229Z,51.90
2022-09-28T10:00:50.888Z,51.90
2022-09-28T10:03:21.053Z,51.70
2022-09-28T10:05:49.244Z,51.30
2022-09-28T10:08:16.277Z,51.40
2022-09-28T10:10:46.258Z,51.10
2022-09-28T10:13:13.584Z,50.80
2022-09-28T10:15:40.278Z,50.50
2022-09-28T10:18:09.569Z,50.50
2022-09-28T10:20:37.580Z,50.50
2022-09-28T10:23:05.016Z,50.50
2022-09-28T10:25:36.596Z,50.50
2022-09-28T10:28:03.332Z,50.60
2022-09-28T10:30:30.060Z,50.60
2022-09-28T10:32:59.564Z,50.80
2022-09-28T10:35:27.212Z,51.50
2022-09-28T10:37:55.576Z,50.90
2022-09-28T10:40:30.272Z,50.90
2022-09-28T10:43:01.613Z,51.00
2022-09-28T10:45:28.380Z,51.00
2022-09-28T10:47:55.814Z,51.10
2022-09-28T10:50:23.422Z,51.10
2022-09-28T10:52:50.090Z,51.20
2022-09-28T10:55:19.798Z,51.30
2022-09-28T10:57:46.455Z,51.20
2022-09-28T11:00:31.646Z,51.30
2022-09-28T11:02:58.313Z,51.30
2022-09-28T11:05:27.772Z,51.30
2022-09-28T11:07:55.911Z,51.30
2022-09-28T11:10:25.165Z,51.30
2022-09-28T11:12:51.966Z,51.30
2022-09-28T11:15:19.707Z,51.20
2022-09-28T11:17:46.623Z,51.20
2022-09-28T11:20:29.404Z,51.30
2022-09-28T11:22:58.356Z,51.20
2022-09-28T11:25:28.605Z,51.20
2022-09-28T11:27:55.523Z,51.20
2022-09-28T11:30:34.464Z,51.10
2022-09-28T11:33:02.903Z,51.30
2022-09-28T11:35:30.014Z,51.40
2022-09-28T11:38:18.596Z,51.10
2022-09-28T11:40:59.555Z,50.70
2022-09-28T11:43:29.339Z,50.50
2022-09-28T11:46:22.595Z,50.20
2022-09-28T11:48:50.247Z,50.10
2022-09-28T11:51:18.541Z,50.20
2022-09-28T11:53:45.212Z,50.30
2022-09-28T11:56:14.942Z,50.30
2022-09-28T11:58:45.922Z,50.40
2022-09-28T12:01:18.874Z,50.40
2022-09-28T12:03:50.877Z,50.60
2022-09-28T12:06:18.500Z,50.60
2022-09-28T12:08:53.697Z,50.60
2022-09-28T12:11:20.372Z,50.70
2022-09-28T12:13:49.133Z,50.80
2022-09-28T12:19:13.020Z,50.90
2022-09-28T12:21:44.058Z,50.90
2022-09-28T12:24:10.735Z,51.00
2022-09-28T12:26:42.549Z,51.10
2022-09-28T12:29:16.769Z,51.00
2022-09-28T12:31:56.023Z,51.10
2022-09-28T12:34:22.722Z,51.10
2022-09-28T12:36:58.506Z,51.10
2022-09-28T12:39:56.428Z,51.30
2022-09-28T12:42:44.143Z,51.30
2022-09-28T12:45:20.038Z,51.30
2022-09-28T12:48:05.053Z,51.20
2022-09-28T12:50:41.619Z,51.30
2022-09-28T12:53:29.701Z,51.20
2022-09-28T12:56:02.609Z,51.20
2022-09-28T12:58:42.253Z,51.20
2022-09-28T13:01:15.387Z,51.20
2022-09-28T13:04:00.543Z,51.20
2022-09-28T13:06:47.496Z,51.20
2022-09-28T13:09:20.609Z,51.20
2022-09-28T13:11:51.960Z,50.90
2022-09-28T13:14:37.466Z,50.60
2022-09-28T13:17:25.787Z,50.40
2022-09-28T13:19:55.512Z,50.20
2022-09-28T13:22:22.178Z,50.10
2022-09-28T13:24:49.259Z,50.10
2022-09-28T13:27:18.746Z,50.10
2022-09-28T13:29:45.695Z,50.20
2022-09-28T13:32:12.786Z,50.20
2022-09-28T13:34:39.497Z,50.30
2022-09-28T13:37:24.963Z,50.30
2022-09-28T13:39:59.011Z,50.40
2022-09-28T13:42:25.835Z,50.30
2022-09-28T13:44:59.500Z,50.40
2022-09-28T13:47:38.460Z,50.60
2022-09-28T13:50:18.013Z,50.00
2022-09-28T13:53:03.882Z,51.20
2022-09-28T13:55:33.002Z,50.70
2022-09-28T13:58:04.520Z,50.20
2022-09-28T14:00:46.185Z,50.50
2022-09-28T14:03:13.287Z,50.70
2022-09-28T14:05:52.285Z,50.80
2022-09-28T14:08:30.091Z,50.80
2022-09-28T14:10:57.271Z,50.80
2022-09-28T14:13:45.401Z,50.90
2022-09-28T14:16:20.631Z,51.00
2022-09-28T14:18:51.141Z,50.90
2022-09-28T14:21:36.618Z,51.00
2022-09-28T14:24:18.071Z,51.20
2022-09-28T14:26:50.754Z,51.30
2022-09-28T14:29:27.450Z,51.20
2022-09-28T14:31:58.321Z,51.20
2022-09-28T14:34:33.655Z,51.20
2022-09-28T14:37:19.188Z,51.20
2022-09-28T14:40:04.601Z,51.40
2022-09-28T14:42:31.282Z,51.40
2022-09-28T14:45:06.690Z,50.90
2022-09-28T14:47:38.228Z,50.80
2022-09-28T14:50:22.226Z,50.60
2022-09-28T14:52:55.483Z,50.30
2022-09-28T14:55:29.325Z,50.40
2022-09-28T14:57:56.868Z,50.40
2022-09-28T15:00:25.927Z,50.40
2022-09-28T15:02:52.888Z,50.50
2022-09-28T15:05:24.264Z,50.60
2022-09-28T15:07:52.218Z,50.70
2022-09-28T15:10:28.261Z,50.60
2022-09-28T15:12:56.118Z,50.70
2022-09-28T15:15:28.496Z,50.90
2022-09-28T15:18:02.021Z,51.00
2022-09-28T15:20:38.148Z,51.40
2022-09-28T15:23:04.915Z,51.50
2022-09-28T15:25:32.064Z,51.80
2022-09-28T15:27:59.698Z,52.00
2022-09-28T15:30:31.899Z,52.30
2022-09-28T15:33:19.047Z,52.30
2022-09-28T15:35:48.778Z,52.50
2022-09-28T15:38:19.426Z,52.60
2022-09-28T15:40:47.545Z,52.60
2022-09-28T15:43:23.643Z,52.60
2022-09-28T15:46:04.050Z,52.80
2022-09-28T15:48:57.093Z,52.90
2022-09-28T15:51:23.882Z,52.90
2022-09-28T15:53:50.543Z,53.60
2022-09-28T15:56:17.217Z,53.20
2022-09-28T15:58:43.872Z,53.20
2022-09-28T16:01:40.082Z,53.30
2022-09-28T16:04:25.595Z,53.40
2022-09-28T16:07:24.838Z,53.70
2022-09-28T16:09:55.791Z,53.80
2022-09-28T16:12:22.897Z,53.60
2022-09-28T16:14:49.976Z,53.80
2022-09-28T16:17:35.136Z,53.40
2022-09-28T16:20:05.838Z,53.10
2022-09-28T16:22:32.802Z,52.30
2022-09-28T16:25:00.887Z,52.40
2022-09-28T16:27:27.744Z,52.50
2022-09-28T16:30:05.236Z,52.50
2022-09-28T16:32:36.144Z,52.60
2022-09-28T16:35:05.974Z,52.90
2022-09-28T16:37:32.695Z,52.90
2022-09-28T16:39:59.339Z,53.20
2022-09-28T16:42:25.998Z,53.20
2022-09-28T16:44:53.062Z,53.50
2022-09-28T16:47:19.822Z,53.30
2022-09-28T16:49:48.027Z,53.50
2022-09-28T16:52:34.648Z,53.60
2022-09-28T16:55:38.924Z,53.70
2022-09-28T16:58:04.748Z,53.80
2022-09-28T17:00:31.896Z,53.80
2022-09-28T17:02:58.675Z,54.00
2022-09-28T17:05:25.636Z,53.50
2022-09-28T17:07:59.711Z,53.90
2022-09-28T17:10:41.207Z,53.90
2022-09-28T17:13:23.696Z,53.90
2022-09-28T17:15:50.497Z,54.20
2022-09-28T17:18:17.856Z,53.60
2022-09-28T17:20:48.720Z,54.40
2022-09-28T17:23:15.678Z,54.30
2022-09-28T17:25:42.506Z,54.40
2022-09-28T17:28:15.552Z,54.50
2022-09-28T17:30:42.304Z,54.70
2022-09-28T17:33:09.160Z,54.70
2022-09-28T17:35:39.632Z,55.30
2022-09-28T17:38:06.551Z,55.00
2022-09-28T17:40:33.436Z,55.00
2022-09-28T17:43:00.553Z,55.00
2022-09-28T17:45:28.790Z,54.70
2022-09-28T17:47:55.533Z,54.50
2022-09-28T17:50:26.248Z,53.80
2022-09-28T17:52:53.109Z,53.70
2022-09-28T17:55:24.959Z,53.50
2022-09-28T17:57:51.804Z,53.70
2022-09-28T18:00:18.641Z,53.70
2022-09-28T18:02:45.530Z,53.80
2022-09-28T18:05:14.707Z,53.90
2022-09-28T18:07:47.280Z,54.00
2022-09-28T18:10:16.244Z,54.10
2022-09-28T18:12:45.997Z,54.20
2022-09-28T18:15:13.817Z,54.30
2022-09-28T18:17:40.569Z,54.30
2022-09-28T18:20:07.903Z,54.40
2022-09-28T18:22:35.675Z,54.50
2022-09-28T18:25:04.125Z,54.40
2022-09-28T18:27:31.517Z,54.50
2022-09-28T18:29:58.337Z,54.50
2022-09-28T18:32:25.309Z,54.70
2022-09-28T18:34:52.150Z,54.70
2022-09-28T18:37:19.051Z,54.60
2022-09-28T18:39:46.121Z,54.60
2022-09-28T18:42:13.373Z,54.60
2022-09-28T18:44:40.221Z,54.60
2022-09-28T18:47:06.968Z,54.60
2022-09-28T18:49:34.429Z,54.60
2022-09-28T18:52:01.719Z,54.70
2022-09-28T18:54:28.562Z,54.50
2022-09-28T18:57:01.230Z,54.70
2022-09-28T18:59:28.722Z,54.70
2022-09-28T19:01:55.846Z,54.80
2022-09-28T19:04:22.722Z,54.50
2022-09-28T19:06:54.560Z,54.50
2022-09-28T19:09:21.952Z,54.90
2022-09-28T19:11:49.017Z,54.80
2022-09-28T19:14:15.906Z,54.90
2022-09-28T19:16:43.581Z,54.90
2022-09-28T19:19:12.370Z,54.90
2022-09-28T19:21:39.738Z,54.90
2022-09-28T19:24:06.487Z,55.00
2022-09-28T19:26:33.282Z,54.90
2022-09-28T19:28:59.963Z,54.80
2022-09-28T19:31:26.804Z,55.00
2022-09-28T19:33:53.496Z,55.10
2022-09-28T19:36:21.890Z,54.80
2022-09-28T19:38:48.569Z,54.60
2022-09-28T19:41:39.517Z,54.50
2022-09-28T19:44:25.284Z,54.10
2022-09-28T19:47:06.717Z,53.90
2022-09-28T19:49:36.845Z,53.40
2022-09-28T19:52:16.173Z,53.40
2022-09-28T19:54:44.563Z,53.20
2022-09-28T19:57:11.932Z,53.40
2022-09-28T19:59:38.789Z,53.30
2022-09-28T20:02:05.944Z,53.40
2022-09-28T20:04:32.580Z,53.60
2022-09-28T20:06:59.319Z,53.50
2022-09-28T20:09:25.998Z,53.60
2022-09-28T20:11:53.205Z,53.70
2022-09-28T20:14:21.471Z,53.80
2022-09-28T20:16:50.195Z,53.80
2022-09-28T20:19:19.102Z,53.90
2022-09-28T20:21:48.090Z,53.90
2022-09-28T20:24:16.233Z,54.00
2022-09-28T20:26:43.439Z,53.90
2022-09-28T20:29:10.658Z,54.00
2022-09-28T20:31:37.441Z,54.00
2022-09-28T20:34:04.473Z,54.10
2022-09-28T20:36:34.053Z,54.40
2022-09-28T20:39:01.851Z,54.10
2022-09-28T20:41:28.848Z,54.10
2022-09-28T20:43:56.220Z,54.30
2022-09-28T20:46:23.032Z,54.20
2022-09-28T20:48:50.316Z,54.40
2022-09-28T20:51:17.817Z,54.20
2022-09-28T20:53:47.100Z,54.50
2022-09-28T20:56:18.098Z,54.40
2022-09-28T20:58:44.794Z,54.50
2022-09-28T21:01:13.716Z,54.40
2022-09-28T21:03:40.473Z,54.50
2022-09-28T21:06:11.514Z,54.50
2022-09-28T21:08:38.899Z,54.40
2022-09-28T21:11:06.567Z,54.40
2022-09-28T21:13:33.306Z,54.40
2022-09-28T21:16:03.429Z,54.50
2022-09-28T21:18:30.700Z,54.40
2022-09-28T21:20:57.405Z,54.40
2022-09-28T21:23:25.004Z,54.50
2022-09-28T21:26:00.659Z,54.40
2022-09-28T21:28:27.362Z,54.40
2022-09-28T21:30:54.096Z,54.50
2022-09-28T21:33:20.829Z,54.30
2022-09-28T21:35:47.606Z,54.40
2022-09-28T21:38:14.266Z,54.40
2022-09-28T21:40:41.928Z,54.30
2022-09-28T21:43:08.636Z,54.50
2022-09-28T21:45:35.363Z,54.30
2022-09-28T21:48:02.000Z,54.50
2022-09-28T21:50:28.737Z,54.40
2022-09-28T21:52:55.406Z,54.50
2022-09-28T21:55:22.364Z,54.50
2022-09-28T21:57:50.622Z,54.80
2022-09-28T22:00:18.228Z,54.50
2022-09-28T22:02:45.170Z,54.20
2022-09-28T22:05:12.358Z,54.00
2022-09-28T22:07:39.477Z,53.90
2022-09-28T22:10:07.056Z,53.60
2022-09-28T22:12:33.679Z,53.20
2022-09-28T22:15:00.422Z,53.10
2022-09-28T22:17:27.244Z,53.20
2022-09-28T22:19:53.927Z,53.10
2022-09-28T22:22:20.622Z,53.10
2022-09-28T22:24:47.331Z,53.10
2022-09-28T22:27:15.436Z,53.20
2022-09-28T22:29:42.613Z,53.30
2022-09-28T22:32:09.308Z,53.30
2022-09-28T22:34:35.968Z,53.40
2022-09-28T22:37:05.658Z,53.50
2022-09-28T22:39:37.524Z,53.50
2022-09-28T22:42:04.738Z,53.60
2022-09-28T22:44:31.459Z,53.50
2022-09-28T22:46:58.142Z,53.70
2022-09-28T22:49:24.846Z,53.70
2022-09-28T22:51:54.566Z,53.70
2022-09-28T22:54:21.606Z,53.70
2022-09-28T22:56:48.267Z,53.70
2022-09-28T22:59:14.920Z,53.70
2022-09-28T23:01:41.648Z,53.70
2022-09-28T23:04:08.630Z,53.70
2022-09-28T23:06:35.288Z,53.80
2022-09-28T23:09:02.182Z,53.80
2022-09-28T23:11:29.048Z,54.00
2022-09-28T23:13:56.729Z,54.00
2022-09-28T23:16:25.529Z,53.90
2022-09-28T23:18:52.834Z,54.30
2022-09-28T23:21:20.416Z,54.00
2022-09-28T23:23:50.521Z,53.90
2022-09-28T23:26:17.940Z,54.00
2022-09-28T23:28:44.663Z,54.50
2022-09-28T23:31:12.113Z,54.00
2022-09-28T23:33:39.864Z,54.00
2022-09-28T23:36:06.845Z,54.00
2022-09-28T23:38:33.503Z,54.00
2022-09-28T23:41:00.289Z,54.00
2022-09-28T23:43:27.047Z,54.00
2022-09-28T23:45:53.714Z,54.00
2022-09-28T23:48:20.370Z,54.10
2022-09-28T23:50:47.032Z,54.10
2022-09-28T23:53:14.280Z,54.10
2022-09-28T23:55:44.136Z,54.10
2022-09-28T23:58:11.181Z,54.10
